This is the latest recevied weather packets stored in our database for station/object K4BHH. If no packets are shown the sender has not sent any weather packets the latest 10 day(s).
| Time | Temp. | Humidity | Pressure | Rain* | Wind** | Luminosity | Snow |
|---|---|---|---|---|---|---|---|
| 1777831294 | 17.22° C | 40% | 1021.3 hPa | 0 mm | - | - | - |
| 1777830693 | 17.22° C | 47% | 1021.3 hPa | 0 mm | - | - | - |
| 1777828890 | 17.22° C | 47% | 1022 hPa | 0 mm | - | - | - |
| 1777826362 | 16.11° C | 47% | 1022.4 hPa | 0 mm | - | - | - |
| 1777821554 | 14.44° C | 53% | 1022.7 hPa | 0 mm | - | - | - |
| 1777819751 | 13.89° C | 58% | 1022.7 hPa | 0 mm | - | - | - |
| 1777815514 | 11.11° C | 76% | 1022.7 hPa | 0 mm | - | - | - |
| 1777812509 | 10° C | 84% | 1022.4 hPa | 0 mm | - | - | - |
| 1777801567 | 5° C | 94% | 1021 hPa | 0 mm | - | - | - |
| 1777800966 | 5° C | 94% | 1021 hPa | 0 mm | - | - | - |
| 1777797330 | 6.11° C | 93% | 1020.7 hPa | 0 mm | - | - | - |
| 1777791226 | 6.67° C | 91% | 1020.3 hPa | 0 mm | - | - | - |
| 1777790594 | 6.67° C | 90% | 1020.3 hPa | 0 mm | - | - | - |
| 1777789361 | 7.78° C | 89% | 1020 hPa | 0 mm | - | - | - |
| 1777788159 | 7.78° C | 88% | 1020 hPa | 0 mm | - | - | - |
| 1777786957 | 7.78° C | 87% | 1020 hPa | 0 mm | - | - | - |
| 1777786356 | 7.78° C | 87% | 1020 hPa | 0 mm | - | - | - |
| 1777785755 | 7.78° C | 86% | 1020 hPa | 0 mm | - | - | - |
| 1777783952 | 8.89° C | 80% | 1019.6 hPa | 0 mm | - | - | - |
| 1777782149 | 9.44° C | 77% | 1019.3 hPa | 0 mm | - | - | - |
| 1777769943 | 14.44° C | 55% | 1016.6 hPa | 0 mm | - | - | - |
| 1777768109 | 15.56° C | 56% | 1016.6 hPa | 0 mm | - | - | - |
| 1777763270 | 17.22° C | 44% | 1015.6 hPa | 0 mm | - | - | - |
| 1777760203 | 18.33° C | 38% | 1015.2 hPa | 0 mm | - | - | - |
| 1777754794 | 17.78° C | 45% | 1015.2 hPa | 0 mm | - | - | - |
* Rain latest hour (hover to see other rain measurements)
** Current wind speed in m/s (hover to see current wind gust speed)